createdAt,value
2022-09-18T00:00:36.361Z,92.19
2022-09-18T00:01:36.331Z,92.29
2022-09-18T00:02:36.336Z,92.29
2022-09-18T00:03:36.311Z,92.39
2022-09-18T00:04:36.281Z,92.39
2022-09-18T00:05:36.302Z,92.39
2022-09-18T00:06:36.308Z,92.29
2022-09-18T00:07:36.247Z,92.39
2022-09-18T00:08:36.269Z,92.49
2022-09-18T00:09:36.240Z,92.39
2022-09-18T00:10:36.278Z,92.39
2022-09-18T00:11:36.200Z,92.39
2022-09-18T00:12:36.201Z,92.29
2022-09-18T00:13:36.180Z,92.39
2022-09-18T00:14:36.172Z,92.29
2022-09-18T00:15:36.170Z,92.29
2022-09-18T00:16:36.228Z,92.29
2022-09-18T00:17:36.141Z,92.29
2022-09-18T00:18:36.161Z,92.29
2022-09-18T00:19:36.151Z,92.39
2022-09-18T00:20:36.110Z,92.39
2022-09-18T00:21:36.092Z,92.29
2022-09-18T00:22:36.086Z,92.29
2022-09-18T00:23:36.071Z,92.29
2022-09-18T00:24:36.062Z,92.39
2022-09-18T00:25:36.085Z,92.49
2022-09-18T00:26:36.044Z,92.39
2022-09-18T00:27:36.032Z,92.49
2022-09-18T00:28:36.025Z,92.49
2022-09-18T00:29:36.034Z,92.49
2022-09-18T00:30:36.982Z,92.49
2022-09-18T00:31:36.107Z,92.69
2022-09-18T00:32:35.997Z,92.80
2022-09-18T00:33:35.975Z,92.69
2022-09-18T00:34:35.954Z,92.80
2022-09-18T00:35:35.964Z,92.90
2022-09-18T00:36:35.954Z,92.90
2022-09-18T00:37:35.916Z,93.00
2022-09-18T00:38:35.915Z,92.90
2022-09-18T00:39:35.912Z,92.90
2022-09-18T00:40:36.889Z,93.00
2022-09-18T00:41:35.898Z,92.90
2022-09-18T00:42:35.906Z,93.10
2022-09-18T00:43:35.851Z,93.10
2022-09-18T00:44:35.858Z,93.10
2022-09-18T00:45:35.843Z,93.00
2022-09-18T00:46:35.855Z,93.00
2022-09-18T00:47:35.828Z,93.00
2022-09-18T00:48:35.869Z,93.00
2022-09-18T00:49:35.795Z,93.00
2022-09-18T00:50:35.828Z,93.00
2022-09-18T00:51:35.768Z,93.00
2022-09-18T00:52:35.791Z,93.10
2022-09-18T00:53:35.740Z,93.10
2022-09-18T00:54:35.728Z,93.10
2022-09-18T00:55:35.744Z,93.21
2022-09-18T00:56:35.728Z,93.21
2022-09-18T00:57:35.700Z,93.21
2022-09-18T00:58:35.741Z,93.21
2022-09-18T00:59:35.680Z,93.31
2022-09-18T01:00:35.721Z,93.21
2022-09-18T01:01:35.687Z,93.31
2022-09-18T01:02:35.684Z,93.31
2022-09-18T01:03:35.651Z,93.41
2022-09-18T01:04:35.612Z,93.41
2022-09-18T01:05:35.603Z,93.51
2022-09-18T01:06:35.628Z,93.62
2022-09-18T01:07:35.604Z,93.62
2022-09-18T01:08:37.673Z,93.62
2022-09-18T01:09:35.594Z,93.62
2022-09-18T01:10:35.564Z,93.51
2022-09-18T01:11:35.545Z,93.41
2022-09-18T01:12:35.534Z,93.31
2022-09-18T01:13:35.515Z,93.21
2022-09-18T01:14:35.520Z,93.21
2022-09-18T01:15:35.526Z,93.21
2022-09-18T01:16:35.572Z,93.21
2022-09-18T01:17:35.496Z,93.21
2022-09-18T01:18:35.476Z,93.21
2022-09-18T01:19:35.492Z,93.21
2022-09-18T01:20:36.410Z,93.21
2022-09-18T01:21:35.467Z,93.10
2022-09-18T01:22:35.427Z,93.10
2022-09-18T01:23:35.404Z,93.10
2022-09-18T01:24:35.405Z,93.21
2022-09-18T01:25:35.429Z,93.31
2022-09-18T01:26:35.379Z,93.51
2022-09-18T01:27:35.399Z,93.62
2022-09-18T01:28:35.358Z,93.51
2022-09-18T01:29:35.350Z,93.62
2022-09-18T01:30:35.357Z,93.82
2022-09-18T01:31:35.377Z,94.02
2022-09-18T01:32:35.315Z,94.12
2022-09-18T01:33:35.295Z,94.23
2022-09-18T01:34:35.288Z,94.33
2022-09-18T01:35:41.586Z,94.58
2022-09-18T01:36:36.262Z,94.58
2022-09-18T01:37:35.252Z,94.68
2022-09-18T01:38:35.241Z,94.78
2022-09-18T01:39:35.242Z,94.89
2022-09-18T01:40:35.304Z,94.98
2022-09-18T01:41:35.212Z,94.98
2022-09-18T01:42:35.209Z,94.98
2022-09-18T01:43:35.181Z,94.98
2022-09-18T01:44:35.213Z,94.89
2022-09-18T01:45:35.172Z,94.89
2022-09-18T01:46:35.237Z,94.89
2022-09-18T01:47:35.155Z,94.78
2022-09-18T01:48:35.169Z,94.48
2022-09-18T01:49:35.127Z,94.48
2022-09-18T01:50:35.138Z,94.58
2022-09-18T01:51:35.128Z,94.48
2022-09-18T01:52:35.118Z,94.37
2022-09-18T01:53:35.074Z,94.37
2022-09-18T01:54:35.092Z,94.37
2022-09-18T01:55:35.081Z,94.27
2022-09-18T01:56:35.050Z,94.23
2022-09-18T01:57:35.046Z,94.27
2022-09-18T01:58:35.025Z,94.27
2022-09-18T01:59:35.046Z,94.37
2022-09-18T02:00:35.000Z,94.48
2022-09-18T02:01:35.099Z,94.37
2022-09-18T02:02:35.072Z,94.27
2022-09-18T02:03:34.992Z,94.07
2022-09-18T02:04:34.960Z,94.07
2022-09-18T02:05:34.989Z,94.17
2022-09-18T02:06:34.937Z,94.33
2022-09-18T02:07:34.918Z,94.48
2022-09-18T02:08:34.978Z,94.58
2022-09-18T02:09:34.930Z,94.68
2022-09-18T02:10:34.899Z,94.89
2022-09-18T02:11:34.908Z,94.89
2022-09-18T02:12:34.909Z,94.94
2022-09-18T02:13:34.855Z,94.94
2022-09-18T02:14:34.858Z,94.89
2022-09-18T02:15:34.840Z,94.98
2022-09-18T02:16:34.897Z,94.98
2022-09-18T02:17:34.819Z,95.04
2022-09-18T02:18:34.832Z,95.19
2022-09-18T02:19:34.797Z,95.15
2022-09-18T02:20:34.791Z,95.19
2022-09-18T02:21:34.800Z,95.19
2022-09-18T02:22:34.765Z,95.19
2022-09-18T02:23:34.752Z,95.29
2022-09-18T02:24:34.733Z,95.29
2022-09-18T02:25:34.734Z,95.39
2022-09-18T02:26:34.724Z,95.50
2022-09-18T02:27:34.734Z,95.50
2022-09-18T02:28:34.700Z,95.50
2022-09-18T02:29:34.687Z,95.50
2022-09-18T02:30:34.703Z,95.60
2022-09-18T02:31:34.703Z,95.60
2022-09-18T02:32:34.665Z,95.56
2022-09-18T02:33:34.674Z,95.56
2022-09-18T02:34:34.648Z,95.65
2022-09-18T02:35:34.610Z,95.65
2022-09-18T02:36:34.617Z,95.70
2022-09-18T02:37:34.622Z,95.70
2022-09-18T02:38:34.614Z,95.70
2022-09-18T02:39:34.615Z,95.80
2022-09-18T02:40:34.623Z,95.80
2022-09-18T02:41:34.546Z,95.76
2022-09-18T02:42:35.486Z,95.90
2022-09-18T02:43:34.535Z,95.86
2022-09-18T02:44:34.527Z,95.86
2022-09-18T02:45:34.558Z,95.90
2022-09-18T02:46:34.579Z,95.96
2022-09-18T02:47:34.491Z,95.96
2022-09-18T02:48:34.473Z,95.96
2022-09-18T02:49:34.453Z,95.90
2022-09-18T02:50:34.543Z,95.86
2022-09-18T02:51:34.437Z,95.80
2022-09-18T02:52:34.455Z,95.80
2022-09-18T02:53:34.418Z,95.80
2022-09-18T02:54:34.415Z,95.80
2022-09-18T02:55:34.393Z,95.80
2022-09-18T02:56:34.410Z,95.70
2022-09-18T02:57:34.370Z,95.70
2022-09-18T02:58:34.359Z,95.60
2022-09-18T02:59:34.352Z,95.60
2022-09-18T03:00:34.351Z,95.60
2022-09-18T03:01:34.382Z,95.60
2022-09-18T03:02:34.364Z,95.60
2022-09-18T03:03:34.299Z,95.60
2022-09-18T03:04:34.293Z,95.60
2022-09-18T03:05:34.317Z,95.60
2022-09-18T03:06:34.280Z,95.50
2022-09-18T03:07:34.279Z,95.50
2022-09-18T03:08:34.269Z,95.50
2022-09-18T03:09:34.233Z,95.39
2022-09-18T03:10:34.244Z,95.45
2022-09-18T03:11:34.247Z,95.56
2022-09-18T03:12:34.245Z,95.60
2022-09-18T03:13:34.194Z,95.65
2022-09-18T03:14:34.192Z,95.76
2022-09-18T03:15:34.180Z,95.86
2022-09-18T03:16:34.225Z,95.76
2022-09-18T03:17:34.165Z,95.86
2022-09-18T03:18:34.175Z,95.86
2022-09-18T03:19:34.139Z,96.01
2022-09-18T03:20:34.146Z,95.90
2022-09-18T03:21:34.134Z,95.90
2022-09-18T03:22:34.121Z,95.90
2022-09-18T03:23:34.087Z,95.90
2022-09-18T03:24:34.092Z,95.90
2022-09-18T03:25:34.068Z,95.96
2022-09-18T03:26:34.066Z,95.96
2022-09-18T03:27:34.071Z,96.11
2022-09-18T03:28:34.079Z,96.21
2022-09-18T03:29:34.029Z,96.31
2022-09-18T03:30:34.031Z,96.31
2022-09-18T03:31:34.071Z,96.42
2022-09-18T03:32:34.028Z,96.42
2022-09-18T03:33:33.969Z,96.51
2022-09-18T03:34:34.004Z,96.51
2022-09-18T03:35:33.956Z,96.51
2022-09-18T03:36:33.945Z,96.62
2022-09-18T03:37:33.934Z,96.72
2022-09-18T03:38:33.956Z,96.83
2022-09-18T03:39:33.923Z,96.83
2022-09-18T03:40:33.953Z,96.83
2022-09-18T03:41:33.889Z,96.72
2022-09-18T03:42:33.875Z,96.83
2022-09-18T03:43:33.895Z,96.83
2022-09-18T03:44:33.883Z,96.83
2022-09-18T03:45:33.850Z,96.83
2022-09-18T03:46:33.865Z,96.83
2022-09-18T03:47:36.458Z,96.83
2022-09-18T03:48:33.813Z,96.92
2022-09-18T03:49:34.500Z,97.03
2022-09-18T03:50:33.803Z,97.03
2022-09-18T03:51:33.777Z,97.13
2022-09-18T03:52:33.804Z,97.33
2022-09-18T03:53:33.773Z,97.33
2022-09-18T03:54:33.738Z,97.33
2022-09-18T03:55:33.752Z,97.33
2022-09-18T03:56:33.724Z,97.33
2022-09-18T03:57:33.757Z,97.33
2022-09-18T03:58:33.734Z,97.44
2022-09-18T03:59:33.703Z,97.44
2022-09-18T04:00:33.685Z,97.44
2022-09-18T04:01:33.767Z,97.33
2022-09-18T04:02:33.940Z,97.33
2022-09-18T04:03:33.652Z,97.33
2022-09-18T04:04:33.636Z,97.33
2022-09-18T04:05:33.619Z,97.33
2022-09-18T04:06:33.664Z,97.33
2022-09-18T04:07:33.605Z,97.33
2022-09-18T04:08:33.590Z,97.33
2022-09-18T04:09:33.586Z,97.24
2022-09-18T04:10:33.570Z,97.33
2022-09-18T04:11:33.558Z,97.33
2022-09-18T04:12:33.560Z,97.33
2022-09-18T04:13:33.545Z,97.44
2022-09-18T04:14:33.550Z,97.44
2022-09-18T04:15:33.514Z,97.44
2022-09-18T04:16:33.519Z,97.54
2022-09-18T04:17:33.522Z,97.54
2022-09-18T04:18:34.434Z,97.64
2022-09-18T04:19:33.502Z,97.64
2022-09-18T04:20:33.471Z,97.69
2022-09-18T04:21:33.456Z,97.79
2022-09-18T04:22:34.394Z,97.79
2022-09-18T04:23:33.427Z,97.85
2022-09-18T04:24:33.456Z,97.85
2022-09-18T04:25:33.415Z,97.74
2022-09-18T04:26:33.382Z,97.85
2022-09-18T04:27:33.387Z,97.85
2022-09-18T04:28:33.390Z,97.85
2022-09-18T04:29:33.354Z,97.89
2022-09-18T04:30:33.377Z,97.85
2022-09-18T04:31:33.386Z,97.99
2022-09-18T04:32:33.327Z,97.95
2022-09-18T04:33:33.313Z,97.95
2022-09-18T04:34:33.305Z,97.95
2022-09-18T04:35:34.755Z,97.95
2022-09-18T04:36:33.315Z,98.05
2022-09-18T04:37:33.275Z,98.05
2022-09-18T04:38:33.290Z,98.05
2022-09-18T04:39:33.254Z,98.05
2022-09-18T04:40:33.376Z,98.05
2022-09-18T04:41:33.238Z,98.05
2022-09-18T04:42:33.225Z,98.05
2022-09-18T04:43:33.233Z,98.05
2022-09-18T04:44:33.219Z,98.15
2022-09-18T04:45:33.222Z,98.15
2022-09-18T04:46:33.206Z,98.15
2022-09-18T04:47:33.196Z,98.25
2022-09-18T04:48:33.206Z,98.25
2022-09-18T04:49:33.188Z,98.36
2022-09-18T04:50:33.157Z,98.36
2022-09-18T04:51:33.139Z,98.36
2022-09-18T04:52:33.291Z,98.46
2022-09-18T04:53:33.237Z,98.46
2022-09-18T04:54:33.217Z,98.46
2022-09-18T04:55:33.089Z,98.46
2022-09-18T04:56:33.262Z,98.46
2022-09-18T04:57:33.058Z,98.56
2022-09-18T04:58:33.066Z,98.56
2022-09-18T04:59:33.249Z,98.56
2022-09-18T05:00:33.076Z,98.56
2022-09-18T05:01:33.057Z,98.66
2022-09-18T05:02:32.991Z,98.66
2022-09-18T05:03:33.032Z,98.66
2022-09-18T05:04:32.978Z,98.66
2022-09-18T05:05:33.073Z,98.66
2022-09-18T05:06:32.947Z,98.77
2022-09-18T05:07:32.952Z,98.77
2022-09-18T05:08:33.077Z,98.77
2022-09-18T05:09:32.942Z,98.77
2022-09-18T05:10:32.913Z,98.77
2022-09-18T05:11:32.894Z,98.86
2022-09-18T05:12:32.922Z,98.77
2022-09-18T05:13:32.873Z,98.77
2022-09-18T05:14:32.863Z,98.86
2022-09-18T05:15:32.874Z,98.86
2022-09-18T05:16:32.888Z,98.97
2022-09-18T05:17:32.854Z,98.97
2022-09-18T05:18:32.814Z,98.97
2022-09-18T05:19:32.827Z,98.86
2022-09-18T05:20:32.824Z,98.86
2022-09-18T05:21:32.789Z,98.86
2022-09-18T05:22:32.796Z,98.77
2022-09-18T05:23:32.771Z,98.77
2022-09-18T05:24:32.772Z,98.86
2022-09-18T05:25:32.736Z,98.86
2022-09-18T05:26:32.736Z,98.86
2022-09-18T05:27:32.742Z,98.86
2022-09-18T05:28:32.737Z,98.86
2022-09-18T05:29:32.704Z,98.77
2022-09-18T05:30:32.688Z,98.86
2022-09-18T05:31:32.744Z,98.86
2022-09-18T05:32:32.679Z,98.97
2022-09-18T05:33:34.118Z,99.07
2022-09-18T05:34:32.680Z,99.18
2022-09-18T05:35:32.640Z,99.27
2022-09-18T05:36:32.660Z,99.38
2022-09-18T05:37:32.614Z,99.48
2022-09-18T05:38:32.612Z,99.58
2022-09-18T05:39:32.620Z,99.68
2022-09-18T05:40:32.601Z,99.79
2022-09-18T05:41:32.624Z,99.79
2022-09-18T05:42:32.550Z,99.89
2022-09-18T05:43:32.563Z,99.99
2022-09-18T05:44:32.522Z,99.99
2022-09-18T05:45:32.522Z,99.99
2022-09-18T05:46:32.578Z,99.99
2022-09-18T05:47:32.541Z,99.99
2022-09-18T05:48:32.496Z,99.99
2022-09-18T05:49:32.531Z,99.99
2022-09-18T05:50:32.463Z,99.99
2022-09-18T05:51:32.455Z,99.99
2022-09-18T05:52:32.469Z,99.99
2022-09-18T05:53:32.498Z,99.99
2022-09-18T05:54:32.431Z,99.99
2022-09-18T05:55:32.436Z,99.99
2022-09-18T05:56:32.395Z,99.99
2022-09-18T05:57:33.385Z,99.99
2022-09-18T05:58:33.865Z,99.99
2022-09-18T05:59:32.421Z,99.99
2022-09-18T06:00:32.455Z,99.99
2022-09-18T06:01:32.375Z,99.99
2022-09-18T06:02:32.400Z,99.99
2022-09-18T06:03:33.796Z,99.99
2022-09-18T06:04:32.336Z,99.99
2022-09-18T06:05:32.361Z,99.99
2022-09-18T06:06:32.320Z,99.99
2022-09-18T06:07:32.299Z,99.99
2022-09-18T06:08:32.260Z,99.99
2022-09-18T06:09:33.228Z,99.99
2022-09-18T06:10:32.270Z,99.99
2022-09-18T06:11:33.690Z,99.99
2022-09-18T06:12:32.232Z,99.99
2022-09-18T06:13:32.215Z,99.99
2022-09-18T06:14:32.819Z,99.99
2022-09-18T06:15:32.224Z,99.99
2022-09-18T06:16:32.291Z,99.99
2022-09-18T06:17:32.173Z,99.99
2022-09-18T06:18:32.203Z,99.99
2022-09-18T06:19:32.155Z,99.99
2022-09-18T06:20:32.180Z,99.99
2022-09-18T06:21:32.130Z,99.99
2022-09-18T06:22:32.101Z,99.99
2022-09-18T06:23:32.110Z,99.99
2022-09-18T06:24:32.113Z,99.99
2022-09-18T06:25:32.071Z,99.99
2022-09-18T06:26:32.092Z,99.99
2022-09-18T06:27:32.452Z,99.99
2022-09-18T06:28:32.089Z,99.99
2022-09-18T06:29:32.050Z,99.99
2022-09-18T06:30:32.984Z,99.99
2022-09-18T06:31:32.091Z,99.99
2022-09-18T06:32:32.026Z,99.99
2022-09-18T06:33:32.021Z,99.99
2022-09-18T06:34:35.502Z,99.99
2022-09-18T06:35:32.977Z,99.99
2022-09-18T06:36:31.964Z,99.99
2022-09-18T06:37:31.967Z,99.99
2022-09-18T06:38:32.006Z,99.99
2022-09-18T06:39:31.930Z,99.99
2022-09-18T06:40:32.069Z,99.99
2022-09-18T06:41:32.656Z,99.99
2022-09-18T06:42:31.889Z,99.99
2022-09-18T06:43:31.903Z,99.99
2022-09-18T06:44:31.878Z,99.99
2022-09-18T06:45:31.865Z,99.99
2022-09-18T06:46:31.913Z,99.99
2022-09-18T06:47:31.848Z,99.99
2022-09-18T06:48:31.833Z,99.99
2022-09-18T06:49:31.880Z,99.99
2022-09-18T06:50:31.816Z,99.99
2022-09-18T06:51:33.485Z,99.99
2022-09-18T06:52:31.782Z,99.99
2022-09-18T06:53:32.025Z,99.99
2022-09-18T06:54:31.816Z,99.99
2022-09-18T06:55:39.327Z,99.99
2022-09-18T06:56:31.968Z,99.99
2022-09-18T06:57:32.040Z,99.99
2022-09-18T06:58:31.825Z,99.99
2022-09-18T06:59:31.763Z,99.99
2022-09-18T07:00:31.838Z,99.99
2022-09-18T07:01:32.021Z,99.99
2022-09-18T07:02:31.897Z,99.99
2022-09-18T07:04:58.665Z,99.99
2022-09-18T07:05:50.259Z,99.99
2022-09-18T07:08:28.629Z,99.99
2022-09-18T07:09:27.779Z,99.99
2022-09-18T07:10:27.747Z,99.99
2022-09-18T07:11:27.792Z,99.99
2022-09-18T07:12:28.810Z,99.99
2022-09-18T07:13:28.724Z,99.99
2022-09-18T07:14:27.711Z,99.89
2022-09-18T07:15:27.716Z,99.89
2022-09-18T07:16:28.316Z,99.79
2022-09-18T07:17:27.693Z,99.79
2022-09-18T07:18:27.795Z,99.89
2022-09-18T07:19:27.652Z,99.89
2022-09-18T07:20:28.030Z,99.89
2022-09-18T07:21:27.697Z,99.89
2022-09-18T07:22:27.665Z,99.79
2022-09-18T07:23:27.633Z,99.79
2022-09-18T07:24:27.609Z,99.68
2022-09-18T07:25:27.584Z,99.58
2022-09-18T07:26:27.577Z,99.54
2022-09-18T07:27:27.916Z,99.54
2022-09-18T07:28:27.588Z,99.54
2022-09-18T07:29:27.609Z,99.64
2022-09-18T07:30:27.574Z,99.74
2022-09-18T07:31:27.695Z,99.74
2022-09-18T07:32:28.339Z,99.84
2022-09-18T07:33:27.546Z,99.84
2022-09-18T07:34:29.434Z,99.95
2022-09-18T07:35:27.485Z,99.99
2022-09-18T07:36:27.470Z,99.99
2022-09-18T07:37:27.476Z,99.99
2022-09-18T07:38:27.461Z,99.99
2022-09-18T07:39:29.384Z,99.99
2022-09-18T07:40:28.419Z,99.99
2022-09-18T07:41:27.404Z,99.99
2022-09-18T07:42:27.390Z,99.99
2022-09-18T07:44:37.692Z,99.95
2022-09-18T07:45:37.824Z,99.95
2022-09-18T07:46:37.891Z,99.95
2022-09-18T07:47:37.510Z,99.95
2022-09-18T07:48:37.511Z,99.95
2022-09-18T07:49:37.682Z,99.95
2022-09-18T07:50:37.496Z,99.95
2022-09-18T07:51:37.465Z,99.95
2022-09-18T07:52:39.466Z,99.95
2022-09-18T07:53:37.672Z,99.95
2022-09-18T07:54:38.405Z,99.85
2022-09-18T07:55:38.899Z,99.85
2022-09-18T07:56:40.123Z,99.75
2022-09-18T07:57:38.369Z,99.65
2022-09-18T07:58:37.675Z,99.54
2022-09-18T07:59:38.834Z,99.54
2022-09-18T08:00:38.863Z,99.54
2022-09-18T08:01:38.408Z,99.54
2022-09-18T08:02:37.678Z,99.54
2022-09-18T08:03:41.368Z,99.65
2022-09-18T08:04:38.169Z,99.54
2022-09-18T08:05:38.777Z,99.54
2022-09-18T08:06:38.764Z,99.54
2022-09-18T08:07:38.772Z,99.54
2022-09-18T08:08:37.430Z,99.44
2022-09-18T08:09:38.741Z,99.24
2022-09-18T08:10:38.088Z,99.14
2022-09-18T08:11:37.330Z,98.93
2022-09-18T08:12:38.703Z,98.79
2022-09-18T08:13:38.686Z,98.68
2022-09-18T08:14:37.307Z,98.58
2022-09-18T08:15:37.336Z,98.48
2022-09-18T08:16:38.713Z,98.27
2022-09-18T08:17:37.329Z,98.22
2022-09-18T08:18:38.132Z,97.97
2022-09-18T08:19:38.632Z,97.87
2022-09-18T08:20:38.642Z,97.66
2022-09-18T08:21:37.329Z,97.56
2022-09-18T08:22:38.583Z,97.56
2022-09-18T08:23:37.931Z,97.46
2022-09-18T08:24:37.314Z,97.56
2022-09-18T08:25:37.182Z,97.56
2022-09-18T08:26:38.608Z,97.36
2022-09-18T08:27:38.539Z,97.05
2022-09-18T08:28:37.842Z,97.05
2022-09-18T08:29:37.051Z,97.16
2022-09-18T08:30:38.506Z,97.05
2022-09-18T08:31:37.362Z,96.95
2022-09-18T08:32:37.335Z,96.95
2022-09-18T08:33:37.842Z,96.84
2022-09-18T08:34:37.023Z,96.70
2022-09-18T08:35:36.977Z,96.50
2022-09-18T08:36:37.005Z,96.30
2022-09-18T08:37:36.975Z,96.09
2022-09-18T08:38:36.959Z,95.58
2022-09-18T08:39:36.937Z,95.78
2022-09-18T08:40:37.022Z,95.68
2022-09-18T08:41:36.992Z,95.58
2022-09-18T08:42:36.995Z,95.58
2022-09-18T08:43:36.906Z,95.37
2022-09-18T08:44:36.904Z,95.28
2022-09-18T08:45:36.905Z,95.17
2022-09-18T08:46:36.951Z,94.97
2022-09-18T08:47:36.843Z,94.97
2022-09-18T08:48:36.940Z,94.66
2022-09-18T08:49:36.832Z,94.87
2022-09-18T08:50:38.686Z,95.07
2022-09-18T08:51:36.797Z,95.17
2022-09-18T08:52:36.812Z,95.28
2022-09-18T08:53:36.810Z,95.58
2022-09-18T08:54:36.772Z,95.78
2022-09-18T08:55:36.759Z,95.89
2022-09-18T08:56:36.753Z,96.09
2022-09-18T08:57:36.734Z,96.19
2022-09-18T08:58:36.951Z,96.39
2022-09-18T08:59:36.723Z,96.39
2022-09-18T09:00:36.772Z,96.50
2022-09-18T09:01:36.702Z,96.19
2022-09-18T09:02:36.720Z,95.89
2022-09-18T09:03:36.721Z,95.68
2022-09-18T09:04:36.699Z,95.48
2022-09-18T09:05:36.665Z,94.97
2022-09-18T09:06:36.701Z,94.97
2022-09-18T09:07:36.620Z,95.28
2022-09-18T09:08:36.625Z,95.28
2022-09-18T09:09:36.638Z,95.17
2022-09-18T09:10:36.582Z,94.87
2022-09-18T09:11:36.588Z,94.72
2022-09-18T09:12:36.566Z,94.82
2022-09-18T09:13:36.577Z,94.92
2022-09-18T09:14:56.009Z,95.03
2022-09-18T09:15:37.589Z,95.03
2022-09-18T09:16:38.044Z,95.03
2022-09-18T09:17:36.533Z,94.92
2022-09-18T09:18:36.570Z,94.88
2022-09-18T09:19:36.503Z,94.98
2022-09-18T09:20:36.508Z,94.98
2022-09-18T09:21:36.504Z,94.98
2022-09-18T09:22:36.666Z,94.88
2022-09-18T09:23:36.454Z,94.73
2022-09-18T09:24:36.428Z,94.63
2022-09-18T09:25:36.421Z,94.53
2022-09-18T09:26:36.417Z,94.53
2022-09-18T09:27:36.468Z,94.53
2022-09-18T09:28:36.427Z,94.53
2022-09-18T09:29:36.379Z,94.53
2022-09-18T09:30:36.392Z,94.32
2022-09-18T09:31:36.469Z,94.12
2022-09-18T09:32:36.357Z,93.71
2022-09-18T09:33:37.303Z,93.21
2022-09-18T09:34:36.367Z,93.01
2022-09-18T09:35:36.311Z,93.01
2022-09-18T09:36:36.309Z,92.70
2022-09-18T09:37:36.284Z,92.70
2022-09-18T09:38:36.293Z,92.49
2022-09-18T09:39:37.221Z,92.70
2022-09-18T09:40:36.344Z,92.90
2022-09-18T09:41:36.246Z,92.70
2022-09-18T09:42:36.254Z,92.74
2022-09-18T09:43:36.369Z,92.84
2022-09-18T09:44:36.221Z,93.01
2022-09-18T09:45:36.225Z,93.15
2022-09-18T09:46:36.258Z,92.90
2022-09-18T09:47:36.183Z,92.80
2022-09-18T09:48:36.183Z,92.70
2022-09-18T09:49:36.181Z,92.60
2022-09-18T09:50:36.177Z,92.60
2022-09-18T09:51:36.163Z,92.49
2022-09-18T09:52:36.133Z,92.29
2022-09-18T09:53:36.115Z,92.09
2022-09-18T09:54:36.118Z,91.88
2022-09-18T09:55:36.106Z,91.68
2022-09-18T09:56:36.090Z,91.48
2022-09-18T09:57:36.084Z,91.43
2022-09-18T09:58:36.088Z,91.53
2022-09-18T09:59:36.073Z,91.53
2022-09-18T10:00:36.091Z,91.64
2022-09-18T10:01:36.110Z,91.33
2022-09-18T10:02:36.084Z,90.52
2022-09-18T10:03:36.007Z,90.62
2022-09-18T10:04:36.032Z,90.78
2022-09-18T10:05:35.989Z,90.78
2022-09-18T10:06:35.995Z,90.58
2022-09-18T10:07:35.986Z,90.58
2022-09-18T10:08:35.987Z,90.68
2022-09-18T10:09:35.954Z,90.68
2022-09-18T10:10:35.935Z,90.48
2022-09-18T10:11:35.948Z,90.44
2022-09-18T10:12:36.879Z,90.13
2022-09-18T10:13:35.901Z,90.03
2022-09-18T10:14:35.924Z,89.92
2022-09-18T10:15:37.364Z,89.52
2022-09-18T10:16:35.894Z,89.11
2022-09-18T10:17:37.850Z,89.22
2022-09-18T10:18:35.849Z,88.40
2022-09-18T10:19:36.821Z,87.38
2022-09-18T10:20:35.825Z,87.59
2022-09-18T10:21:35.836Z,87.89
2022-09-18T10:22:35.822Z,88.26
2022-09-18T10:23:35.806Z,88.16
2022-09-18T10:24:35.776Z,88.16
2022-09-18T10:25:35.812Z,87.75
2022-09-18T10:26:35.757Z,87.34
2022-09-18T10:27:35.793Z,86.88
2022-09-18T10:28:35.736Z,86.07
2022-09-18T10:29:36.187Z,86.47
2022-09-18T10:30:35.694Z,86.98
2022-09-18T10:31:35.753Z,87.38
2022-09-18T10:32:35.677Z,87.69
2022-09-18T10:33:35.675Z,88.10
2022-09-18T10:34:35.667Z,88.50
2022-09-18T10:35:35.653Z,88.81
2022-09-18T10:36:35.661Z,89.31
2022-09-18T10:37:35.650Z,89.76
2022-09-18T10:38:35.618Z,90.37
2022-09-18T10:39:35.605Z,91.39
2022-09-18T10:40:35.659Z,92.86
2022-09-18T10:41:35.577Z,93.57
2022-09-18T10:42:35.620Z,94.23
2022-09-18T10:43:35.571Z,94.78
2022-09-18T10:44:35.592Z,95.29
2022-09-18T10:45:35.626Z,95.94
2022-09-18T10:46:35.646Z,96.45
2022-09-18T10:47:35.511Z,97.11
2022-09-18T10:48:35.533Z,97.52
2022-09-18T10:49:35.551Z,97.92
2022-09-18T10:50:35.481Z,98.33
2022-09-18T10:51:35.482Z,98.74
2022-09-18T10:52:35.487Z,98.94
2022-09-18T10:53:35.455Z,99.09
2022-09-18T10:54:35.439Z,98.68
2022-09-18T10:55:35.495Z,98.83
2022-09-18T10:56:35.539Z,98.83
2022-09-18T10:57:36.307Z,99.14
2022-09-18T10:58:35.437Z,99.65
2022-09-18T10:59:35.429Z,99.95
2022-09-18T11:00:35.440Z,99.99
2022-09-18T11:01:35.428Z,99.99
2022-09-18T11:02:35.546Z,99.99
2022-09-18T11:03:35.375Z,99.99
2022-09-18T11:04:35.323Z,99.99
2022-09-18T11:05:35.315Z,99.99
2022-09-18T11:06:35.339Z,99.99
2022-09-18T11:07:36.266Z,99.99
2022-09-18T11:08:35.276Z,99.99
2022-09-18T11:09:35.293Z,99.99
2022-09-18T11:10:35.256Z,99.99
2022-09-18T11:11:35.293Z,99.99
2022-09-18T11:12:35.258Z,99.99
2022-09-18T11:13:35.240Z,99.99
2022-09-18T11:14:36.181Z,99.99
2022-09-18T11:15:35.211Z,99.99
2022-09-18T11:16:35.318Z,99.99
2022-09-18T11:17:35.213Z,99.99
2022-09-18T11:18:35.179Z,99.99
2022-09-18T11:19:35.174Z,99.99
2022-09-18T11:20:35.158Z,99.99
2022-09-18T11:21:35.158Z,99.99
2022-09-18T11:22:35.160Z,99.99
2022-09-18T11:23:35.129Z,99.99
2022-09-18T11:24:35.113Z,99.99
2022-09-18T11:25:35.110Z,99.99
2022-09-18T11:26:35.095Z,99.99
2022-09-18T11:27:35.082Z,99.99
2022-09-18T11:28:35.087Z,99.99
2022-09-18T11:29:35.050Z,99.99
2022-09-18T11:30:35.059Z,99.99
2022-09-18T11:31:35.076Z,99.99
2022-09-18T11:32:35.039Z,99.99
2022-09-18T11:33:35.029Z,99.99
2022-09-18T11:34:34.994Z,99.99
2022-09-18T11:35:35.021Z,99.99
2022-09-18T11:36:34.975Z,99.99
2022-09-18T11:37:34.967Z,99.99
2022-09-18T11:38:35.435Z,99.99
2022-09-18T11:39:34.998Z,99.99
2022-09-18T11:40:35.005Z,99.99
2022-09-18T11:41:34.934Z,99.99
2022-09-18T11:42:34.933Z,99.99
2022-09-18T11:43:34.902Z,99.99
2022-09-18T11:44:34.881Z,99.99
2022-09-18T11:45:34.904Z,99.99
2022-09-18T11:46:34.930Z,99.99
2022-09-18T11:47:34.872Z,99.99
2022-09-18T11:48:35.014Z,99.99
2022-09-18T11:49:34.844Z,99.99
2022-09-18T11:50:34.823Z,99.99
2022-09-18T11:51:34.820Z,99.99
2022-09-18T11:52:34.819Z,99.99
2022-09-18T11:53:34.806Z,99.99
2022-09-18T11:54:34.783Z,99.99
2022-09-18T11:55:34.775Z,99.99
2022-09-18T11:56:34.797Z,99.99
2022-09-18T11:57:34.789Z,99.99
2022-09-18T11:58:34.738Z,99.99
2022-09-18T11:59:34.789Z,99.99
2022-09-18T12:00:34.706Z,99.99
2022-09-18T12:01:34.712Z,99.99
2022-09-18T12:02:34.932Z,99.99
2022-09-18T12:03:34.782Z,99.99
2022-09-18T12:04:34.679Z,99.99
2022-09-18T12:05:34.749Z,99.99
2022-09-18T12:06:34.676Z,99.99
2022-09-18T12:07:48.975Z,99.99
2022-09-18T12:08:33.274Z,99.99
2022-09-18T12:09:33.315Z,99.99
2022-09-18T12:10:33.260Z,99.99
2022-09-18T12:11:33.244Z,99.99
2022-09-18T12:12:33.244Z,99.99
2022-09-18T12:13:33.500Z,99.99
2022-09-18T12:14:33.292Z,99.99
2022-09-18T12:15:33.295Z,99.99
2022-09-18T12:16:33.194Z,99.99
2022-09-18T12:17:33.147Z,99.99
2022-09-18T12:18:33.247Z,99.99
2022-09-18T12:19:33.202Z,99.99
2022-09-18T12:20:33.149Z,99.99
2022-09-18T12:21:33.579Z,99.99
2022-09-18T12:22:33.137Z,99.99
2022-09-18T12:23:33.093Z,99.99
2022-09-18T12:24:33.073Z,99.99
2022-09-18T12:25:33.123Z,99.99
2022-09-18T12:26:33.045Z,99.99
2022-09-18T12:27:33.080Z,99.99
2022-09-18T12:28:33.028Z,99.99
2022-09-18T12:29:33.073Z,99.99
2022-09-18T12:30:32.990Z,99.99
2022-09-18T12:31:33.069Z,99.99
2022-09-18T12:32:33.023Z,99.99
2022-09-18T12:33:34.349Z,99.99
2022-09-18T12:34:32.941Z,99.99
2022-09-18T12:35:32.999Z,99.99
2022-09-18T12:36:32.929Z,99.99
2022-09-18T12:37:32.969Z,99.99
2022-09-18T12:38:33.033Z,99.99
2022-09-18T12:39:33.576Z,99.99
2022-09-18T12:40:33.609Z,99.99
2022-09-18T12:41:33.606Z,99.99
2022-09-18T12:42:33.547Z,99.99
2022-09-18T12:43:33.539Z,99.99
2022-09-18T12:44:33.561Z,99.99
2022-09-18T12:45:33.527Z,99.99
2022-09-18T12:46:33.508Z,99.99
2022-09-18T12:47:33.482Z,99.99
2022-09-18T12:48:33.463Z,99.99
2022-09-18T12:49:33.446Z,99.99
2022-09-18T12:50:33.473Z,99.99
2022-09-18T12:51:33.461Z,99.99
2022-09-18T12:52:33.411Z,99.99
2022-09-18T12:53:33.401Z,99.99
2022-09-18T12:54:33.399Z,99.99
2022-09-18T12:55:33.375Z,99.99
2022-09-18T12:56:33.349Z,99.99